Time;durP1;ratioP1;P1;durP2;ratioP2;P2;SDS_P1;SDS_P2;PMS_P1;PMS_P2;Temp;Humidity;BMP_temperature;BMP_pressure;BME280_temperature;BME280_humidity;BME280_pressure;Samples;Min_cycle;Max_cycle;Signal;HPM_P1;HPM_P2
2022/04/28 00:02:09;;;;;;;4.63;2.83;;;;;;;7.37;69.62;101623.16;5063119;28;20025;-68
2022/04/28 00:04:35;;;;;;;6.10;3.38;;;;;;;7.35;69.88;101614.50;5063436;28;20307;-68
2022/04/28 00:07:01;;;;;;;7.43;3.10;;;;;;;7.30;69.87;101610.94;5063571;28;20021;-68
2022/04/28 00:09:26;;;;;;;4.88;3.05;;;;;;;7.27;70.10;101605.66;5063129;28;20492;-67
2022/04/28 00:11:52;;;;;;;5.50;3.40;;;;;;;7.22;70.03;101596.97;5063232;28;20029;-69
2022/04/28 00:14:18;;;;;;;5.78;3.30;;;;;;;7.21;70.44;101605.53;5062987;28;20021;-67
2022/04/28 00:16:44;;;;;;;7.93;3.28;;;;;;;7.19;70.54;101606.38;5063356;28;20408;-67
2022/04/28 00:19:09;;;;;;;4.68;3.42;;;;;;;7.18;70.62;101598.59;5062975;28;20017;-67
2022/04/28 00:21:35;;;;;;;5.60;3.30;;;;;;;7.14;71.37;101597.63;5063190;28;20029;-68
2022/04/28 00:24:00;;;;;;;5.45;3.65;;;;;;;7.12;71.42;101598.44;5044852;28;20017;-68
2022/04/28 00:26:25;;;;;;;6.95;3.30;;;;;;;7.10;72.28;101597.50;5063277;28;20080;-69
2022/04/28 00:28:51;;;;;;;5.82;3.42;;;;;;;7.09;72.42;101595.78;5063215;28;20027;-68
2022/04/28 00:31:16;;;;;;;7.18;3.45;;;;;;;7.02;72.97;101587.88;5063012;28;20113;-68
2022/04/28 00:33:41;;;;;;;5.07;3.20;;;;;;;7.03;73.18;101588.72;5062774;28;20084;-69
2022/04/28 00:36:08;;;;;;;5.40;2.78;;;;;;;6.91;73.00;101576.41;5063206;28;20041;-68
2022/04/28 00:38:33;;;;;;;5.82;3.67;;;;;;;6.99;72.75;101587.81;5063327;28;20475;-68
2022/04/28 00:40:59;;;;;;;6.82;4.30;;;;;;;6.99;72.38;101586.91;5063216;28;20021;-68
2022/04/28 00:43:28;;;;;;;5.68;3.63;;;;;;;6.96;72.34;101592.88;5063034;28;20033;-68
2022/04/28 00:45:54;;;;;;;7.97;3.83;;;;;;;6.95;72.38;101588.53;5062567;28;20029;-68
2022/04/28 00:51:06;;;;;;;6.53;3.83;;;;;;;6.85;72.50;101587.44;5063005;28;20063;-68
2022/04/28 00:53:35;;;;;;;5.93;4.10;;;;;;;6.84;72.84;101590.84;5062771;28;20021;-68
2022/04/28 00:56:01;;;;;;;6.47;4.10;;;;;;;6.78;72.55;101581.25;5062965;28;20029;-68
2022/04/28 00:58:26;;;;;;;9.48;4.60;;;;;;;6.75;72.63;101580.28;5062788;28;20021;-68
2022/04/28 01:00:55;;;;;;;14.80;4.97;;;;;;;6.71;72.72;101583.63;5062572;28;20025;-68
2022/04/28 01:03:22;;;;;;;10.77;5.13;;;;;;;6.65;72.83;101582.63;5062878;28;20430;-68
2022/04/28 01:05:49;;;;;;;8.93;5.03;;;;;;;6.59;72.89;101590.19;5062800;28;20044;-68
2022/04/28 01:08:15;;;;;;;12.38;5.70;;;;;;;6.54;73.11;101582.34;5062970;28;20095;-68
2022/04/28 01:10:41;;;;;;;10.35;5.45;;;;;;;6.54;73.25;101587.50;5062551;28;20021;-68
2022/04/28 01:13:06;;;;;;;11.02;6.20;;;;;;;6.50;73.14;101571.88;5062776;28;20048;-68
2022/04/28 01:15:46;;;;;;;9.95;5.80;;;;;;;6.52;72.96;101577.94;5044464;28;20024;-69
2022/04/28 01:18:12;;;;;;;12.55;5.88;;;;;;;6.45;73.31;101571.75;5044573;28;20024;-67
2022/04/28 01:20:37;;;;;;;11.73;5.70;;;;;;;6.49;73.54;101578.75;5062434;28;20120;-68
2022/04/28 01:23:04;;;;;;;12.27;6.82;;;;;;;6.50;73.60;101574.47;5061233;28;20024;-68
2022/04/28 01:25:30;;;;;;;11.35;6.85;;;;;;;6.50;73.86;101572.75;5044919;28;20021;-68
2022/04/28 01:27:56;;;;;;;16.92;6.70;;;;;;;6.51;73.82;101571.94;5062476;28;20064;-68
2022/04/28 01:30:22;;;;;;;14.07;6.80;;;;;;;6.50;73.84;101562.41;5062054;28;20029;-68
2022/04/28 01:32:47;;;;;;;11.68;5.97;;;;;;;6.53;73.75;101574.56;5062651;28;20043;-68
2022/04/28 01:35:12;;;;;;;11.65;6.47;;;;;;;6.48;73.67;101577.00;5066197;28;20044;-69
2022/04/28 01:37:38;;;;;;;11.90;5.82;;;;;;;6.45;73.76;101577.78;5066155;28;20043;-68
2022/04/28 01:40:06;;;;;;;12.05;6.47;;;;;;;6.40;74.03;101579.38;5066119;28;20092;-69
2022/04/28 01:42:32;;;;;;;14.05;6.13;;;;;;;6.37;73.99;101563.81;5064631;28;20017;-68
2022/04/28 01:44:57;;;;;;;14.95;6.43;;;;;;;6.34;73.96;101558.56;5065926;28;20396;-69
2022/04/28 01:47:23;;;;;;;16.42;7.40;;;;;;;6.38;74.07;101567.25;5066140;28;20025;-68
2022/04/28 01:49:48;;;;;;;15.57;8.05;;;;;;;6.37;74.02;101563.81;5065695;28;20025;-68
2022/04/28 01:54:57;;;;;;;16.15;7.65;;;;;;;6.43;74.02;101564.00;5065739;28;20083;-68
2022/04/28 01:57:27;;;;;;;17.05;8.05;;;;;;;6.48;74.18;101561.53;5065700;28;20460;-68
2022/04/28 01:59:52;;;;;;;17.00;7.70;;;;;;;6.49;74.55;101570.13;5065335;28;20021;-68
2022/04/28 02:02:18;;;;;;;12.40;7.15;;;;;;;6.52;74.15;101560.78;5047749;28;20025;-68
2022/04/28 02:04:43;;;;;;;14.68;7.70;;;;;;;6.46;74.47;101555.44;5065798;28;20025;-68
2022/04/28 02:07:08;;;;;;;14.23;7.85;;;;;;;6.56;74.35;101566.91;5047703;28;20020;-70
2022/04/28 02:09:34;;;;;;;15.10;8.02;;;;;;;6.60;74.41;101567.84;5065333;28;20040;-68
2022/04/28 02:12:00;;;;;;;18.75;8.32;;;;;;;6.62;74.56;101563.59;5047662;28;20021;-69
2022/04/28 02:14:25;;;;;;;20.15;8.82;;;;;;;6.56;74.80;101551.41;5065172;28;20135;-69
2022/04/28 02:16:51;;;;;;;15.20;8.98;;;;;;;6.65;74.81;101561.09;5065497;28;20131;-69
2022/04/28 02:19:16;;;;;;;25.42;9.02;;;;;;;6.67;74.52;101565.47;5065369;28;20027;-69
2022/04/28 02:21:42;;;;;;;16.90;8.38;;;;;;;6.65;74.52;101561.97;5065644;28;20291;-69
2022/04/28 02:24:07;;;;;;;36.95;10.40;;;;;;;6.60;74.49;101549.78;5065344;28;20040;-69
2022/04/28 02:26:33;;;;;;;18.77;8.32;;;;;;;6.64;74.84;101552.50;5065209;28;20445;-69
2022/04/28 02:28:58;;;;;;;15.18;8.35;;;;;;;6.65;74.73;101554.22;5065245;28;20017;-69
2022/04/28 02:31:23;;;;;;;15.90;8.48;;;;;;;6.61;74.83;101554.13;5065123;28;20085;-69
2022/04/28 02:33:49;;;;;;;17.70;8.75;;;;;;;6.53;74.84;101547.03;5064739;28;20161;-67
2022/04/28 02:36:14;;;;;;;18.27;8.85;;;;;;;6.54;74.96;101553.06;5065211;28;20031;-68
2022/04/28 02:38:40;;;;;;;18.80;8.65;;;;;;;6.52;75.12;101552.13;5064827;28;20013;-68
2022/04/28 02:41:05;;;;;;;15.27;8.38;;;;;;;6.43;75.29;101548.50;5064796;28;20040;-68
2022/04/28 02:43:30;;;;;;;17.35;8.02;;;;;;;6.44;75.35;101547.66;5065034;28;20097;-68
2022/04/28 02:45:56;;;;;;;17.05;8.50;;;;;;;6.44;75.62;101549.34;5064527;28;20039;-67
2022/04/28 02:48:22;;;;;;;15.18;8.57;;;;;;;6.37;75.75;101545.75;5064836;28;20067;-67
2022/04/28 02:50:47;;;;;;;19.52;9.57;;;;;;;6.35;75.89;101544.84;5046640;28;20029;-67
2022/04/28 02:53:13;;;;;;;25.90;9.88;;;;;;;6.31;75.98;101533.56;5064699;28;20090;-67
2022/04/28 02:55:40;;;;;;;18.88;9.02;;;;;;;6.30;76.13;101536.09;5064609;28;20025;-68
2022/04/28 02:58:06;;;;;;;20.55;10.00;;;;;;;6.33;76.53;101536.16;5064631;28;20028;-68
2022/04/28 03:00:31;;;;;;;17.15;9.18;;;;;;;6.31;76.58;101523.22;5045977;28;20222;-68
2022/04/28 03:02:56;;;;;;;20.65;9.73;;;;;;;6.39;76.42;101526.03;5064608;28;20478;-68
2022/04/28 03:05:22;;;;;;;20.80;9.73;;;;;;;6.45;76.37;101528.75;5064459;28;20025;-69
2022/04/28 03:13:10;;;;;;;17.17;9.15;;;;;;;6.67;76.61;101534.50;5064555;28;20025;-69
2022/04/28 03:15:36;;;;;;;19.27;8.80;;;;;;;6.69;76.92;101529.38;5064124;28;20032;-69
2022/04/28 03:18:02;;;;;;;20.35;8.88;;;;;;;6.78;76.90;101528.75;5046177;28;20013;-69
2022/04/28 03:20:27;;;;;;;20.17;9.20;;;;;;;6.84;76.81;101528.88;5064043;28;20611;-69
2022/04/28 03:22:52;;;;;;;19.00;8.68;;;;;;;6.89;76.84;101524.72;5062793;28;20028;-69
2022/04/28 03:25:18;;;;;;;14.80;8.68;;;;;;;6.96;76.88;101528.34;5064144;28;20025;-69
2022/04/28 03:27:43;;;;;;;23.23;9.65;;;;;;;7.02;76.97;101519.84;5063335;28;20107;-68
2022/04/28 03:30:09;;;;;;;19.13;8.52;;;;;;;7.07;76.92;101526.00;5062639;28;20043;-68
2022/04/28 03:32:35;;;;;;;15.43;8.73;;;;;;;7.15;76.88;101519.34;5063251;28;20028;-68
2022/04/28 03:35:00;;;;;;;18.40;8.38;;;;;;;7.23;76.72;101523.78;5063697;28;20438;-68
2022/04/28 03:37:26;;;;;;;12.07;7.85;;;;;;;7.26;76.66;101521.28;5063259;28;20025;-68
2022/04/28 03:39:51;;;;;;;14.75;8.13;;;;;;;7.29;76.61;101524.81;5062619;28;20048;-68
2022/04/28 03:42:17;;;;;;;16.80;8.55;;;;;;;7.33;76.50;101523.19;5044926;28;20079;-68
2022/04/28 03:44:43;;;;;;;15.10;8.25;;;;;;;7.34;76.43;101518.88;5063363;28;20058;-68
2022/04/28 03:47:08;;;;;;;15.50;7.57;;;;;;;7.30;76.37;101510.19;5063667;28;20115;-68
2022/04/28 03:49:34;;;;;;;15.48;8.25;;;;;;;7.33;76.46;101515.44;5063576;28;20120;-69
2022/04/28 03:51:59;;;;;;;11.45;7.07;;;;;;;7.36;76.45;101518.09;5063666;28;20033;-68
2022/04/28 03:54:24;;;;;;;14.25;8.88;;;;;;;7.37;76.45;101509.50;5063796;28;20033;-68
2022/04/28 03:56:50;;;;;;;19.33;8.07;;;;;;;7.39;76.45;101507.81;5044926;28;20368;-68
2022/04/28 03:59:15;;;;;;;19.60;8.60;;;;;;;7.37;76.53;101500.84;5063361;28;20032;-69
2022/04/28 04:01:40;;;;;;;16.48;8.10;;;;;;;7.37;76.27;101500.84;5063336;28;20031;-70
2022/04/28 04:04:06;;;;;;;16.88;8.25;;;;;;;7.35;76.32;101506.00;5063411;28;20024;-68
2022/04/28 04:06:31;;;;;;;15.73;8.48;;;;;;;7.35;76.48;101506.00;5063247;28;20028;-68
2022/04/28 04:08:57;;;;;;;15.18;7.80;;;;;;;7.39;76.51;101510.41;5063415;28;20028;-68
2022/04/28 04:11:22;;;;;;;15.52;8.52;;;;;;;7.37;76.86;101512.06;5044991;28;20036;-69
2022/04/28 04:13:47;;;;;;;12.27;7.28;;;;;;;7.43;77.03;101514.78;5063311;28;20025;-68
2022/04/28 04:16:13;;;;;;;12.13;6.38;;;;;;;7.56;77.50;101503.03;5062943;28;20025;-68
2022/04/28 04:18:38;;;;;;;11.80;6.10;;;;;;;7.82;77.55;101504.41;5063557;28;20045;-68
2022/04/28 04:21:04;;;;;;;12.93;6.47;;;;;;;8.16;77.95;101502.50;5063301;28;20431;-70
2022/04/28 04:23:31;;;;;;;12.10;5.90;;;;;;;8.51;77.72;101500.53;5063382;28;20120;-69
2022/04/28 04:25:57;;;;;;;7.32;4.72;;;;;;;8.83;77.31;101502.84;5063106;28;20053;-69
2022/04/28 04:28:23;;;;;;;8.95;6.22;;;;;;;9.07;76.60;101514.47;5062903;28;20483;-69
2022/04/28 04:33:32;;;;;;;6.78;5.03;;;;;;;9.83;76.97;101504.25;5062885;28;20036;-68
2022/04/28 04:35:57;;;;;;;9.20;4.88;;;;;;;10.39;76.22;101517.00;5062858;28;20036;-67
2022/04/28 04:38:22;;;;;;;11.38;5.65;;;;;;;11.03;76.04;101518.47;5062741;28;20028;-68
2022/04/28 04:40:48;;;;;;;9.00;4.95;;;;;;;11.74;75.27;101511.09;5061648;28;20452;-68
2022/04/28 04:43:13;;;;;;;6.50;4.32;;;;;;;12.30;73.16;101508.69;5043888;28;20044;-68
2022/04/28 04:45:42;;;;;;;10.10;4.28;;;;;;;12.93;72.18;101513.94;5062292;28;20033;-67
2022/04/28 04:48:13;;;;;;;10.13;4.03;;;;;;;13.61;70.89;101513.00;5063262;28;20079;-68
2022/04/28 04:50:39;;;;;;;9.05;4.18;;;;;;;14.18;67.65;101508.38;5062978;28;20127;-68
2022/04/28 04:53:06;;;;;;;8.85;4.10;;;;;;;14.74;65.37;101518.47;5062905;28;20044;-70
2022/04/28 04:55:36;;;;;;;8.00;3.60;;;;;;;14.69;61.80;101520.22;5063185;28;20047;-70
2022/04/28 04:58:02;;;;;;;10.20;3.20;;;;;;;14.24;59.47;101521.41;5063179;28;20032;-67
2022/04/28 05:00:28;;;;;;;9.82;3.67;;;;;;;13.75;59.16;101521.63;5062666;28;20045;-70
2022/04/28 05:02:53;;;;;;;11.57;3.80;;;;;;;13.33;58.71;101532.16;5062905;28;20084;-70
2022/04/28 05:05:18;;;;;;;10.57;3.20;;;;;;;13.11;58.79;101526.97;5063020;28;20022;-71
2022/04/28 05:07:46;;;;;;;8.40;3.40;;;;;;;13.09;58.42;101523.50;5063042;28;20021;-71
2022/04/28 05:10:12;;;;;;;7.63;3.30;;;;;;;12.94;58.63;101531.34;5048649;28;20057;-69
2022/04/28 05:12:37;;;;;;;11.20;3.10;;;;;;;12.87;58.21;101527.84;5048742;28;20025;-70
2022/04/28 05:15:03;;;;;;;8.10;3.20;;;;;;;12.81;58.60;101530.47;5066462;28;20031;-70
2022/04/28 05:17:28;;;;;;;10.15;3.72;;;;;;;13.04;58.29;101530.44;5066412;28;20029;-70
2022/04/28 05:19:58;;;;;;;7.68;3.05;;;;;;;13.23;57.44;101539.13;5066529;28;20092;-67
2022/04/28 05:22:24;;;;;;;9.05;2.90;;;;;;;13.30;57.19;101526.94;5066328;28;20032;-71
2022/04/28 05:24:49;;;;;;;8.10;3.70;;;;;;;13.53;56.69;101525.19;5066372;28;20024;-71
2022/04/28 05:27:15;;;;;;;11.70;4.18;;;;;;;13.71;54.62;101524.25;5066302;28;20032;-70
2022/04/28 05:29:41;;;;;;;10.70;3.55;;;;;;;13.70;53.67;101528.63;5066176;28;20032;-71
2022/04/28 05:32:06;;;;;;;18.00;3.35;;;;;;;13.65;54.16;101525.16;5066184;28;20388;-72
2022/04/28 05:34:32;;;;;;;8.55;3.03;;;;;;;13.64;54.07;101526.03;5065980;28;20512;-72
2022/04/28 05:36:57;;;;;;;11.25;3.22;;;;;;;13.48;52.95;101522.56;5066231;28;20021;-72
2022/04/28 05:39:23;;;;;;;11.88;3.83;;;;;;;13.31;53.34;101523.47;5065696;28;20497;-71
2022/04/28 05:41:49;;;;;;;8.55;3.08;;;;;;;13.36;54.11;101513.00;5065710;28;20390;-71
2022/04/28 05:46:59;;;;;;;10.68;2.80;;;;;;;13.45;52.75;101519.97;5065287;28;20051;-70
2022/04/28 05:49:25;;;;;;;10.57;3.65;;;;;;;13.30;51.62;101506.09;5065209;28;20025;-71
2022/04/28 05:51:50;;;;;;;7.13;2.88;;;;;;;13.14;51.41;101513.06;5065935;28;20021;-71
2022/04/28 05:54:16;;;;;;;8.00;2.92;;;;;;;12.83;51.39;101508.72;5065526;28;20084;-71
2022/04/28 05:56:42;;;;;;;9.35;2.92;;;;;;;12.55;52.00;101507.84;5065352;28;20245;-71
2022/04/28 05:59:09;;;;;;;8.00;3.28;;;;;;;12.32;52.00;101511.28;5065339;28;20018;-71
2022/04/28 06:01:35;;;;;;;8.90;3.17;;;;;;;12.07;52.16;101513.78;5065058;28;20013;-71
2022/04/28 06:04:00;;;;;;;6.45;2.42;;;;;;;11.92;52.74;101517.22;5065288;28;20056;-71
2022/04/28 06:06:25;;;;;;;6.93;2.78;;;;;;;11.84;52.72;101517.16;5047106;28;20085;-71
2022/04/28 06:08:51;;;;;;;13.30;3.03;;;;;;;11.78;52.45;101531.03;5065126;28;20036;-71
2022/04/28 06:11:16;;;;;;;6.88;2.70;;;;;;;11.76;52.32;101527.56;5064937;28;20384;-71
2022/04/28 06:13:41;;;;;;;8.45;2.85;;;;;;;11.72;52.47;101533.63;5065336;28;20457;-72
2022/04/28 06:16:07;;;;;;;7.20;2.22;;;;;;;11.86;52.46;101544.97;5065008;28;20035;-72
2022/04/28 06:18:33;;;;;;;9.13;2.38;;;;;;;12.13;52.33;101529.47;5065149;28;20031;-72
2022/04/28 06:20:58;;;;;;;16.80;2.72;;;;;;;12.47;51.20;101541.72;5064728;28;20059;-71
2022/04/28 06:23:23;;;;;;;10.65;2.97;;;;;;;12.79;50.76;101533.06;5065652;28;20029;-71
2022/04/28 06:25:49;;;;;;;13.02;2.45;;;;;;;13.24;50.80;101535.63;5065153;28;20021;-72
2022/04/28 06:28:14;;;;;;;9.02;2.30;;;;;;;13.67;49.06;101546.91;5065116;28;20024;-72
2022/04/28 06:30:40;;;;;;;12.98;2.78;;;;;;;13.95;48.04;101538.06;5063079;28;20024;-72
2022/04/28 06:33:05;;;;;;;9.95;2.72;;;;;;;14.30;47.58;101544.88;5064403;28;20039;-66
2022/04/28 06:35:33;;;;;;;12.50;2.60;;;;;;;14.58;47.20;101549.94;5064682;28;20128;-72
2022/04/28 06:37:59;;;;;;;13.52;2.70;;;;;;;14.79;46.29;101547.19;5064618;28;20080;-72
2022/04/28 06:40:25;;;;;;;7.75;3.22;;;;;;;15.07;46.10;101554.81;5064649;28;20224;-72
2022/04/28 06:42:52;;;;;;;10.15;3.75;;;;;;;15.47;45.92;101546.59;5064933;28;20027;-72
2022/04/28 06:45:18;;;;;;;15.07;4.00;;;;;;;15.97;45.16;101546.03;5046467;28;20024;-72
2022/04/28 06:47:43;;;;;;;13.35;2.85;;;;;;;16.63;44.30;101555.59;5064303;28;20021;-71
2022/04/28 06:50:09;;;;;;;11.10;3.50;;;;;;;17.13;42.70;101552.19;5064007;28;20043;-72
2022/04/28 06:52:36;;;;;;;13.88;3.83;;;;;;;16.98;40.91;101548.91;5064486;28;20341;-71
2022/04/28 06:55:03;;;;;;;13.20;2.92;;;;;;;16.52;41.40;101552.28;5064337;28;20035;-72
2022/04/28 06:57:28;;;;;;;10.93;3.10;;;;;;;16.30;41.83;101542.97;5063970;28;20105;-71
2022/04/28 06:59:53;;;;;;;18.60;3.53;;;;;;;16.15;41.77;101532.72;5063985;28;20028;-71
2022/04/28 07:02:20;;;;;;;11.57;3.38;;;;;;;15.97;41.67;101537.28;5063848;28;20453;-71
2022/04/28 07:04:46;;;;;;;9.85;3.50;;;;;;;15.71;41.39;101538.47;5063904;28;20028;-71
2022/04/28 07:07:11;;;;;;;15.95;4.22;;;;;;;15.71;42.31;101538.47;5063927;28;20104;-71
2022/04/28 07:09:36;;;;;;;13.23;3.33;;;;;;;16.09;41.68;101545.00;5063805;28;20032;-72
2022/04/28 07:12:02;;;;;;;11.73;3.05;;;;;;;16.75;41.34;101538.81;5064010;28;20492;-71
2022/04/28 07:14:27;;;;;;;10.50;2.88;;;;;;;17.29;39.63;101542.28;5063749;28;20031;-72
2022/04/28 07:16:52;;;;;;;13.95;3.47;;;;;;;17.38;39.80;101543.03;5045634;28;20021;-71
2022/04/28 07:19:18;;;;;;;10.70;3.58;;;;;;;17.13;38.87;101549.56;5063664;28;20027;-71
2022/04/28 07:21:43;;;;;;;13.98;3.28;;;;;;;16.84;39.80;101550.91;5063623;28;20492;-71
2022/04/28 07:24:08;;;;;;;16.50;4.15;;;;;;;16.62;40.30;101545.13;5063661;28;20507;-70
2022/04/28 07:26:34;;;;;;;7.75;2.90;;;;;;;16.20;40.79;101543.97;5045491;28;20113;-71
2022/04/28 07:28:59;;;;;;;13.27;3.33;;;;;;;15.78;41.47;101544.50;5062535;28;20083;-72
2022/04/28 07:31:24;;;;;;;12.25;3.45;;;;;;;15.38;42.15;101551.03;5061488;28;20036;-71
2022/04/28 07:33:50;;;;;;;13.63;3.17;;;;;;;14.78;42.91;101548.91;5063467;28;20045;-72
2022/04/28 07:36:15;;;;;;;19.48;4.40;;;;;;;14.47;43.99;101562.19;5063487;28;20045;-70
2022/04/28 07:38:44;;;;;;;23.73;3.97;;;;;;;14.30;44.07;101523.09;5063491;28;20021;-72
2022/04/28 07:41:09;;;;;;;11.85;3.60;;;;;;;14.43;43.82;101550.91;5063458;28;20485;-71
2022/04/28 07:43:35;;;;;;;13.82;3.80;;;;;;;14.27;44.47;101547.50;5063434;28;20039;-72
2022/04/28 07:46:00;;;;;;;10.80;3.65;;;;;;;14.43;44.67;101557.84;5045165;28;20084;-72
2022/04/28 07:48:26;;;;;;;12.02;3.65;;;;;;;14.67;44.43;101561.19;5063563;28;20033;-71
2022/04/28 07:50:51;;;;;;;12.65;3.30;;;;;;;15.14;44.07;101564.34;5063234;28;20035;-72
2022/04/28 07:53:17;;;;;;;14.70;3.65;;;;;;;15.45;43.47;101566.66;5063576;28;20021;-71
2022/04/28 07:55:43;;;;;;;13.75;3.67;;;;;;;15.42;42.71;101565.81;5045139;28;20052;-72
2022/04/28 07:58:08;;;;;;;16.95;3.58;;;;;;;15.16;42.82;101564.34;5063103;28;20090;-72
2022/04/28 08:00:34;;;;;;;25.63;5.07;;;;;;;14.89;43.25;101566.31;5062854;28;20021;-72
2022/04/28 08:02:59;;;;;;;9.30;3.10;;;;;;;14.59;43.75;101556.88;5045218;28;20125;-72
2022/04/28 08:05:25;;;;;;;17.55;3.35;;;;;;;14.20;44.26;101545.81;5063051;28;20091;-72
2022/04/28 08:07:50;;;;;;;15.40;3.47;;;;;;;14.17;45.05;101543.22;5044986;28;20025;-72
2022/04/28 08:10:16;;;;;;;11.57;2.65;;;;;;;14.51;44.89;101553.47;5062785;28;20020;-72
2022/04/28 08:12:42;;;;;;;17.38;4.30;;;;;;;14.99;44.31;101562.72;5063226;28;20025;-73
2022/04/28 08:15:07;;;;;;;16.90;4.00;;;;;;;14.91;44.02;101565.41;5062823;28;20112;-72
2022/04/28 08:17:33;;;;;;;13.38;3.40;;;;;;;14.88;44.31;101565.44;5045101;28;20059;-73
2022/04/28 08:19:59;;;;;;;17.23;3.80;;;;;;;14.78;44.30;101567.22;5045093;28;20017;-71
2022/04/28 08:22:24;;;;;;;16.45;3.38;;;;;;;14.54;44.52;101563.88;5044668;28;20031;-71
2022/04/28 08:24:50;;;;;;;11.18;3.00;;;;;;;14.49;44.79;101560.44;5062626;28;20040;-71
2022/04/28 08:27:15;;;;;;;17.88;3.42;;;;;;;15.45;44.51;101571.00;5062735;28;20055;-70
2022/04/28 08:29:40;;;;;;;13.88;3.33;;;;;;;16.41;42.18;101571.66;5062650;28;20041;-72
2022/04/28 08:32:07;;;;;;;11.88;2.85;;;;;;;16.82;41.65;101569.28;5062523;28;20068;-72
2022/04/28 08:34:33;;;;;;;13.27;4.22;;;;;;;17.16;41.12;101564.38;5062689;28;20052;-71
2022/04/28 08:36:59;;;;;;;11.25;3.92;;;;;;;17.70;40.13;101560.75;5062840;28;20017;-71
2022/04/28 08:39:25;;;;;;;14.60;4.18;;;;;;;18.51;38.59;101563.47;5044775;28;20151;-72
2022/04/28 08:41:52;;;;;;;18.35;4.50;;;;;;;19.36;37.09;101566.69;5062578;28;20021;-72
2022/04/28 08:44:22;;;;;;;15.73;3.63;;;;;;;20.00;35.47;101557.84;5062727;28;20076;-72
2022/04/28 08:46:51;;;;;;;17.17;4.75;;;;;;;20.49;34.60;101559.03;5062630;28;20235;-72
2022/04/28 08:49:26;;;;;;;14.40;3.55;;;;;;;21.20;34.03;101563.75;5062789;28;20021;-71
2022/04/28 08:51:54;;;;;;;12.07;3.83;;;;;;;21.77;33.34;101560.03;5062696;28;20079;-70
2022/04/28 08:54:20;;;;;;;13.00;3.35;;;;;;;21.71;32.92;101571.66;5044555;28;20399;-71
2022/04/28 08:56:46;;;;;;;13.75;3.33;;;;;;;20.96;32.29;101568.13;5062567;28;20028;-71
2022/04/28 08:59:14;;;;;;;13.35;4.03;;;;;;;20.40;33.26;101574.25;5062549;28;20048;-71
2022/04/28 09:01:39;;;;;;;13.07;3.67;;;;;;;19.77;34.17;101575.22;5062331;28;20028;-71
2022/04/28 09:04:05;;;;;;;16.88;3.65;;;;;;;19.19;34.30;101575.88;5062684;28;20258;-71
2022/04/28 09:06:34;;;;;;;20.38;3.67;;;;;;;18.79;35.55;101577.72;5061137;28;20021;-71
2022/04/28 09:09:06;;;;;;;14.10;2.90;;;;;;;19.20;36.04;101583.72;5044401;28;20044;-70
2022/04/28 09:11:35;;;;;;;14.98;3.55;;;;;;;20.14;34.58;101578.56;5062553;28;20029;-71
2022/04/28 09:14:15;;;;;;;10.68;2.95;;;;;;;20.82;33.19;101572.06;5062665;28;20072;-71
2022/04/28 09:16:43;;;;;;;12.65;3.22;;;;;;;21.28;31.76;101581.97;5062124;28;20028;-71
2022/04/28 09:19:33;;;;;;;19.45;3.78;;;;;;;21.31;31.17;101584.50;5044563;28;20024;-71
2022/04/28 09:22:05;;;;;;;12.13;3.42;;;;;;;21.26;31.21;101576.75;5062592;28;20028;-70
2022/04/28 09:24:31;;;;;;;15.73;3.30;;;;;;;20.98;31.09;101577.72;5044299;28;20021;-71
2022/04/28 09:26:57;;;;;;;15.88;3.80;;;;;;;20.43;31.74;101576.78;5044191;28;20021;-71
2022/04/28 09:29:24;;;;;;;17.15;3.63;;;;;;;19.95;32.21;101570.31;5062354;28;20082;-71
2022/04/28 09:31:51;;;;;;;16.73;3.65;;;;;;;19.21;33.18;101581.97;5062033;28;20044;-71
2022/04/28 09:34:20;;;;;;;18.20;3.40;;;;;;;18.55;34.24;101580.03;5061834;28;20045;-71
2022/04/28 09:36:46;;;;;;;17.67;3.85;;;;;;;18.09;35.23;101581.00;5062142;28;20465;-71
2022/04/28 09:39:14;;;;;;;14.73;3.45;;;;;;;18.25;35.72;101583.31;5062265;28;20048;-70
2022/04/28 09:44:24;;;;;;;12.10;3.08;;;;;;;19.48;34.52;101571.59;5062502;28;20039;-70
2022/04/28 09:46:50;;;;;;;17.63;3.28;;;;;;;20.38;32.97;101568.19;5061753;28;20056;-71
2022/04/28 09:49:18;;;;;;;17.10;2.85;;;;;;;21.01;32.07;101569.69;5061861;28;20033;-70
2022/04/28 09:51:44;;;;;;;11.23;3.22;;;;;;;21.57;31.25;101564.22;5061142;28;20086;-71
2022/04/28 09:54:15;;;;;;;18.25;3.40;;;;;;;21.86;30.19;101559.69;5061475;28;20025;-71
2022/04/28 09:56:43;;;;;;;15.85;3.30;;;;;;;22.03;30.13;101566.09;5064652;28;20056;-70
2022/04/28 09:59:11;;;;;;;17.25;3.72;;;;;;;22.51;29.54;101564.22;5064404;28;20021;-70
2022/04/28 10:01:38;;;;;;;14.10;2.75;;;;;;;23.11;28.70;101561.81;5064549;28;20021;-71
2022/04/28 10:04:08;;;;;;;16.65;3.72;;;;;;;23.63;27.82;101556.00;5064209;28;20336;-71
2022/04/28 10:06:35;;;;;;;10.82;3.13;;;;;;;23.85;26.78;101562.13;5065372;28;20031;-71
2022/04/28 10:09:08;;;;;;;10.52;2.65;;;;;;;23.93;27.42;101554.66;5065223;28;20508;-72
2022/04/28 10:11:34;;;;;;;15.35;3.13;;;;;;;24.01;26.08;101552.50;5065194;28;20032;-72
2022/04/28 10:14:00;;;;;;;12.85;2.80;;;;;;;23.72;26.87;101567.13;5065429;28;20036;-72
2022/04/28 10:16:26;;;;;;;10.55;2.63;;;;;;;23.80;26.64;101558.81;5065111;28;20112;-71
2022/04/28 10:19:12;;;;;;;8.70;2.95;;;;;;;24.24;26.30;101558.53;5065216;28;20045;-73
2022/04/28 10:21:50;;;;;;;11.60;3.38;;;;;;;24.36;26.14;101549.13;5047198;28;20036;-73
2022/04/28 10:32:56;;;;;;;12.15;2.88;;;;;;;24.60;24.98;101559.47;5064776;28;20047;-72
2022/04/28 10:35:37;;;;;;;14.63;2.95;;;;;;;24.67;24.47;101557.38;5064897;28;20041;-70
2022/04/28 10:38:09;;;;;;;10.30;2.70;;;;;;;24.48;25.46;101552.97;5064667;28;20036;-72
2022/04/28 10:40:39;;;;;;;;;;;;;;;23.81;26.08;101552.59;5064797;28;20077;-71
2022/04/28 10:43:18;;;;;;;11.02;3.28;;;;;;;23.27;26.68;101564.66;5046482;28;19919;-72
2022/04/28 10:45:45;;;;;;;12.25;3.47;;;;;;;23.32;27.18;101559.16;5064207;28;20031;-71
2022/04/28 10:48:28;;;;;;;14.80;3.20;;;;;;;23.80;26.78;101565.00;5064465;28;20016;-72
2022/04/28 10:51:03;;;;;;;12.10;2.45;;;;;;;23.17;26.88;101566.84;5046310;28;20092;-73
2022/04/28 10:53:29;;;;;;;12.10;3.08;;;;;;;22.58;28.24;101566.63;5046182;28;20024;-74
2022/04/28 10:55:55;;;;;;;9.90;2.55;;;;;;;21.87;29.04;101566.69;5064512;28;20036;-73
2022/04/28 10:58:25;;;;;;;10.20;2.50;;;;;;;21.58;30.14;101565.09;5064588;28;20081;-73
2022/04/28 11:00:58;;;;;;;15.48;2.75;;;;;;;;;;5046164;28;20021;-72
2022/04/28 11:03:42;;;;;;;11.93;2.67;;;;;;;21.51;29.77;101570.63;5064517;28;20027;-73
2022/04/28 11:06:13;;;;;;;14.20;2.65;;;;;;;21.19;30.15;101569.97;5063105;28;20029;-72
2022/04/28 11:08:44;;;;;;;10.98;2.47;;;;;;;21.18;30.62;101573.53;5064123;28;20093;-72
2022/04/28 11:11:12;;;;;;;9.85;2.78;;;;;;;21.40;30.22;101578.06;5063976;28;20025;-72
2022/04/28 11:13:40;;;;;;;13.15;3.03;;;;;;;20.93;30.57;101580.50;5064099;28;20093;-72
2022/04/28 11:16:08;;;;;;;7.70;2.25;;;;;;;20.94;30.76;101589.31;5063914;28;20889;-72
2022/04/28 11:18:34;;;;;;;10.05;2.75;;;;;;;21.51;30.40;101590.88;5063949;28;20040;-72
2022/04/28 11:21:01;;;;;;;13.27;2.83;;;;;;;21.60;30.20;101584.41;5063780;28;20024;-73
2022/04/28 11:23:32;;;;;;;9.20;2.50;;;;;;;20.96;30.67;101568.97;5063797;28;20029;-73
2022/04/28 11:25:58;;;;;;;8.45;2.72;;;;;;;19.96;32.23;101582.56;5063800;28;20099;-73
2022/04/28 11:28:23;;;;;;;12.45;2.60;;;;;;;18.85;33.92;101574.94;5062841;28;20044;-71
2022/04/28 11:30:48;;;;;;;11.23;2.20;;;;;;;18.14;34.30;101580.06;5062090;28;20024;-73
2022/04/28 11:33:14;;;;;;;7.05;2.10;;;;;;;17.39;35.10;101577.13;5063393;28;20025;-73
2022/04/28 11:35:40;;;;;;;13.05;3.17;;;;;;;16.84;36.13;101570.13;5062949;28;20041;-73
2022/04/28 11:38:06;;;;;;;7.65;2.05;;;;;;;16.43;36.78;101571.63;5063436;28;20120;-74
2022/04/28 11:40:35;;;;;;;7.35;2.20;;;;;;;16.09;37.40;101568.59;5063321;28;20052;-73
2022/04/28 11:43:02;;;;;;;5.70;2.00;;;;;;;15.92;38.22;101581.00;5063282;28;20048;-73
2022/04/28 11:45:32;;;;;;;7.95;1.80;;;;;;;15.64;38.39;101586.56;5061618;28;20032;-73
2022/04/28 11:47:59;;;;;;;5.50;1.58;;;;;;;15.44;38.37;101578.03;5063500;28;20024;-73
2022/04/28 11:50:30;;;;;;;3.42;1.30;;;;;;;15.10;38.81;101584.44;5061884;28;20075;-73